createdAt,value
2023-01-09T00:00:00.905Z,975.82
2023-01-09T00:00:11.187Z,975.82
2023-01-09T00:00:21.455Z,975.83
2023-01-09T00:00:31.718Z,975.82
2023-01-09T00:00:42.063Z,975.81
2023-01-09T00:00:52.292Z,975.82
2023-01-09T00:01:02.546Z,975.81
2023-01-09T00:01:12.770Z,975.78
2023-01-09T00:01:23.000Z,975.80
2023-01-09T00:01:33.246Z,975.78
2023-01-09T00:01:43.472Z,975.78
2023-01-09T00:01:53.733Z,975.79
2023-01-09T00:02:04.029Z,975.77
2023-01-09T00:02:14.324Z,975.78
2023-01-09T00:02:24.587Z,975.77
2023-01-09T00:02:34.859Z,975.76
2023-01-09T00:02:45.134Z,975.76
2023-01-09T00:02:55.353Z,975.77
2023-01-09T00:03:05.591Z,975.74
2023-01-09T00:03:15.853Z,975.75
2023-01-09T00:03:26.073Z,975.74
2023-01-09T00:03:36.360Z,975.73
2023-01-09T00:03:46.639Z,975.74
2023-01-09T00:03:56.888Z,975.73
2023-01-09T00:04:07.201Z,975.71
2023-01-09T00:04:17.483Z,975.70
2023-01-09T00:04:27.704Z,975.73
2023-01-09T00:04:37.959Z,975.72
2023-01-09T00:04:48.186Z,975.71
2023-01-09T00:04:58.445Z,975.72
2023-01-09T00:05:08.674Z,975.72
2023-01-09T00:05:18.915Z,975.72
2023-01-09T00:05:29.150Z,975.71
2023-01-09T00:05:39.404Z,975.73
2023-01-09T00:05:49.659Z,975.73
2023-01-09T00:05:59.883Z,975.75
2023-01-09T00:06:10.140Z,975.74
2023-01-09T00:06:20.359Z,975.73
2023-01-09T00:06:30.606Z,975.73
2023-01-09T00:06:40.843Z,975.74
2023-01-09T00:06:51.092Z,975.75
2023-01-09T00:07:01.348Z,975.75
2023-01-09T00:07:11.613Z,975.74
2023-01-09T00:07:21.827Z,975.77
2023-01-09T00:07:32.067Z,975.78
2023-01-09T00:07:42.326Z,975.76
2023-01-09T00:07:52.572Z,975.77
2023-01-09T00:08:02.825Z,975.77
2023-01-09T00:08:13.075Z,975.76
2023-01-09T00:08:23.313Z,975.75
2023-01-09T00:08:33.544Z,975.78
2023-01-09T00:08:43.815Z,975.75
2023-01-09T00:08:54.047Z,975.76
2023-01-09T00:09:04.282Z,975.75
2023-01-09T00:09:14.531Z,975.75
2023-01-09T00:09:24.801Z,975.72
2023-01-09T00:09:35.017Z,975.75
2023-01-09T00:09:45.263Z,975.73
2023-01-09T00:09:55.487Z,975.73
2023-01-09T00:10:06.453Z,975.72
2023-01-09T00:10:16.086Z,975.74
2023-01-09T00:10:26.317Z,975.76
2023-01-09T00:10:36.538Z,975.73
2023-01-09T00:10:46.791Z,975.73
2023-01-09T00:10:57.021Z,975.75
2023-01-09T00:11:07.260Z,975.74
2023-01-09T00:11:17.509Z,975.76
2023-01-09T00:11:27.757Z,975.76
2023-01-09T00:11:37.991Z,975.75
2023-01-09T00:11:48.273Z,975.75
2023-01-09T00:11:58.490Z,975.77
2023-01-09T00:12:08.721Z,975.77
2023-01-09T00:12:18.972Z,975.75
2023-01-09T00:12:29.229Z,975.75
2023-01-09T00:12:39.428Z,975.75
2023-01-09T00:12:49.698Z,975.74
2023-01-09T00:12:59.976Z,975.76
2023-01-09T00:13:10.219Z,975.78
2023-01-09T00:13:20.457Z,975.78
2023-01-09T00:13:30.696Z,975.78
2023-01-09T00:13:40.991Z,975.77
2023-01-09T00:13:51.189Z,975.77
2023-01-09T00:14:01.429Z,975.78
2023-01-09T00:14:11.662Z,975.79
2023-01-09T00:14:21.915Z,975.77
2023-01-09T00:14:32.159Z,975.78
2023-01-09T00:14:42.406Z,975.80
2023-01-09T00:14:52.658Z,975.80
2023-01-09T00:15:02.888Z,975.80
2023-01-09T00:15:13.115Z,975.80
2023-01-09T00:15:23.357Z,975.79
2023-01-09T00:15:33.584Z,975.80
2023-01-09T00:15:43.853Z,975.82
2023-01-09T00:15:54.081Z,975.79
2023-01-09T00:16:04.302Z,975.81
2023-01-09T00:16:14.550Z,975.83
2023-01-09T00:16:24.784Z,975.83
2023-01-09T00:16:35.058Z,975.83
2023-01-09T00:16:45.312Z,975.84
2023-01-09T00:16:55.648Z,975.87
2023-01-09T00:17:05.987Z,975.82
2023-01-09T00:17:16.230Z,975.86
2023-01-09T00:17:26.471Z,975.83
2023-01-09T00:17:36.713Z,975.84
2023-01-09T00:17:46.948Z,975.83
2023-01-09T00:17:57.188Z,975.85
2023-01-09T00:18:07.421Z,975.84
2023-01-09T00:18:17.667Z,975.84
2023-01-09T00:18:27.891Z,975.84
2023-01-09T00:18:38.148Z,975.84
2023-01-09T00:18:48.398Z,975.82
2023-01-09T00:18:58.623Z,975.81
2023-01-09T00:19:08.876Z,975.83
2023-01-09T00:19:19.109Z,975.86
2023-01-09T00:19:29.351Z,975.85
2023-01-09T00:19:39.604Z,975.84
2023-01-09T00:19:49.858Z,975.85
2023-01-09T00:20:00.159Z,975.84
2023-01-09T00:20:10.380Z,975.85
2023-01-09T00:20:20.631Z,975.85
2023-01-09T00:20:30.869Z,975.85
2023-01-09T00:20:41.121Z,975.85
2023-01-09T00:20:51.366Z,975.86
2023-01-09T00:21:01.614Z,975.86
2023-01-09T00:21:11.855Z,975.88
2023-01-09T00:21:22.082Z,975.84
2023-01-09T00:21:32.324Z,975.86
2023-01-09T00:21:42.573Z,975.88
2023-01-09T00:21:52.807Z,975.87
2023-01-09T00:22:03.055Z,975.84
2023-01-09T00:22:13.305Z,975.87
2023-01-09T00:22:23.524Z,975.88
2023-01-09T00:22:33.764Z,975.87
2023-01-09T00:22:44.009Z,975.85
2023-01-09T00:22:54.262Z,975.87
2023-01-09T00:23:04.531Z,975.85
2023-01-09T00:23:14.743Z,975.86
2023-01-09T00:23:25.002Z,975.85
2023-01-09T00:23:35.230Z,975.85
2023-01-09T00:23:45.491Z,975.86
2023-01-09T00:23:55.734Z,975.87
2023-01-09T00:24:05.980Z,975.88
2023-01-09T00:24:16.223Z,975.89
2023-01-09T00:24:26.468Z,975.91
2023-01-09T00:24:36.702Z,975.90
2023-01-09T00:24:46.938Z,975.89
2023-01-09T00:24:57.210Z,975.89
2023-01-09T00:25:07.466Z,975.90
2023-01-09T00:25:17.688Z,975.91
2023-01-09T00:25:27.933Z,975.94
2023-01-09T00:25:38.178Z,975.89
2023-01-09T00:25:48.428Z,975.92
2023-01-09T00:25:58.682Z,975.89
2023-01-09T00:26:08.959Z,975.92
2023-01-09T00:26:19.171Z,975.90
2023-01-09T00:26:29.443Z,975.91
2023-01-09T00:26:39.681Z,975.90
2023-01-09T00:26:49.935Z,975.91
2023-01-09T00:27:00.193Z,975.90
2023-01-09T00:27:10.435Z,975.92
2023-01-09T00:27:20.671Z,975.92
2023-01-09T00:27:30.918Z,975.92
2023-01-09T00:27:41.151Z,975.93
2023-01-09T00:27:51.400Z,975.93
2023-01-09T00:28:01.636Z,975.91
2023-01-09T00:28:11.884Z,975.92
2023-01-09T00:28:22.113Z,975.93
2023-01-09T00:28:32.387Z,975.94
2023-01-09T00:28:42.618Z,975.96
2023-01-09T00:28:52.839Z,975.94
2023-01-09T00:29:03.068Z,975.90
2023-01-09T00:29:13.333Z,975.94
2023-01-09T00:29:23.545Z,975.96
2023-01-09T00:29:33.825Z,975.96
2023-01-09T00:29:44.035Z,975.95
2023-01-09T00:29:54.278Z,975.95
2023-01-09T00:30:04.519Z,975.95
2023-01-09T00:30:14.768Z,975.97
2023-01-09T00:30:25.093Z,975.96
2023-01-09T00:30:35.377Z,975.95
2023-01-09T00:30:45.672Z,975.94
2023-01-09T00:30:55.976Z,975.93
2023-01-09T00:31:06.285Z,975.93
2023-01-09T00:31:16.505Z,975.95
2023-01-09T00:31:26.756Z,975.94
2023-01-09T00:31:36.999Z,975.91
2023-01-09T00:31:47.233Z,975.94
2023-01-09T00:31:57.482Z,975.96
2023-01-09T00:32:07.733Z,975.95
2023-01-09T00:32:17.956Z,975.94
2023-01-09T00:32:28.236Z,975.93
2023-01-09T00:32:38.455Z,975.94
2023-01-09T00:32:48.671Z,975.93
2023-01-09T00:32:58.922Z,975.93
2023-01-09T00:33:09.171Z,975.92
2023-01-09T00:33:19.406Z,975.92
2023-01-09T00:33:29.642Z,975.92
2023-01-09T00:33:39.884Z,975.91
2023-01-09T00:33:50.140Z,975.93
2023-01-09T00:34:00.405Z,975.91
2023-01-09T00:34:10.661Z,975.91
2023-01-09T00:34:20.858Z,975.91
2023-01-09T00:34:31.095Z,975.90
2023-01-09T00:34:41.349Z,975.90
2023-01-09T00:34:51.583Z,975.92
2023-01-09T00:35:01.846Z,975.92
2023-01-09T00:35:12.061Z,975.91
2023-01-09T00:35:22.305Z,975.92
2023-01-09T00:35:32.569Z,975.87
2023-01-09T00:35:42.797Z,975.88
2023-01-09T00:35:53.032Z,975.89
2023-01-09T00:36:03.295Z,975.85
2023-01-09T00:36:13.533Z,975.89
2023-01-09T00:36:23.755Z,975.87
2023-01-09T00:36:34.009Z,975.88
2023-01-09T00:36:44.272Z,975.89
2023-01-09T00:36:54.526Z,975.90
2023-01-09T00:37:04.756Z,975.88
2023-01-09T00:37:14.999Z,975.87
2023-01-09T00:37:25.254Z,975.88
2023-01-09T00:37:35.539Z,975.87
2023-01-09T00:37:45.731Z,975.88
2023-01-09T00:37:55.971Z,975.89
2023-01-09T00:38:06.223Z,975.88
2023-01-09T00:38:16.445Z,975.88
2023-01-09T00:38:26.677Z,975.90
2023-01-09T00:38:36.924Z,975.90
2023-01-09T00:38:47.151Z,975.88
2023-01-09T00:38:57.402Z,975.88
2023-01-09T00:39:07.643Z,975.88
2023-01-09T00:39:17.884Z,975.88
2023-01-09T00:39:28.119Z,975.89
2023-01-09T00:39:38.360Z,975.89
2023-01-09T00:39:48.622Z,975.92
2023-01-09T00:39:58.839Z,975.89
2023-01-09T00:40:09.069Z,975.90
2023-01-09T00:40:19.317Z,975.90
2023-01-09T00:40:29.545Z,975.89
2023-01-09T00:40:39.794Z,975.89
2023-01-09T00:40:50.025Z,975.90
2023-01-09T00:41:00.288Z,975.91
2023-01-09T00:41:10.505Z,975.91
2023-01-09T00:41:20.750Z,975.91
2023-01-09T00:41:31.000Z,975.92
2023-01-09T00:41:41.245Z,975.93
2023-01-09T00:41:51.483Z,975.93
2023-01-09T00:42:01.841Z,975.92
2023-01-09T00:42:12.080Z,975.93
2023-01-09T00:42:22.294Z,975.96
2023-01-09T00:42:32.560Z,975.98
2023-01-09T00:42:42.790Z,975.96
2023-01-09T00:42:53.037Z,975.95
2023-01-09T00:43:03.263Z,975.96
2023-01-09T00:43:13.516Z,975.98
2023-01-09T00:43:23.740Z,975.99
2023-01-09T00:43:34.021Z,975.99
2023-01-09T00:43:44.234Z,975.99
2023-01-09T00:43:54.489Z,975.99
2023-01-09T00:44:04.701Z,975.98
2023-01-09T00:44:14.952Z,975.99
2023-01-09T00:44:25.186Z,975.98
2023-01-09T00:44:35.416Z,975.97
2023-01-09T00:44:45.650Z,975.98
2023-01-09T00:44:55.913Z,976.00
2023-01-09T00:45:06.132Z,976.01
2023-01-09T00:45:16.370Z,975.98
2023-01-09T00:45:26.613Z,975.99
2023-01-09T00:45:36.884Z,975.98
2023-01-09T00:45:47.152Z,975.99
2023-01-09T00:45:57.369Z,976.00
2023-01-09T00:46:07.692Z,976.01
2023-01-09T00:46:18.001Z,976.02
2023-01-09T00:46:28.233Z,976.03
2023-01-09T00:46:38.505Z,976.03
2023-01-09T00:46:48.751Z,976.05
2023-01-09T00:46:58.989Z,976.04
2023-01-09T00:47:09.210Z,976.04
2023-01-09T00:47:19.465Z,976.04
2023-01-09T00:47:29.692Z,976.05
2023-01-09T00:47:39.924Z,976.06
2023-01-09T00:47:50.187Z,976.06
2023-01-09T00:48:00.416Z,976.07
2023-01-09T00:48:10.671Z,976.08
2023-01-09T00:48:20.885Z,976.10
2023-01-09T00:48:31.140Z,976.07
2023-01-09T00:48:41.376Z,976.06
2023-01-09T00:48:51.645Z,976.07
2023-01-09T00:49:01.859Z,976.06
2023-01-09T00:49:12.091Z,976.08
2023-01-09T00:49:22.329Z,976.08
2023-01-09T00:49:32.574Z,976.09
2023-01-09T00:49:42.805Z,976.09
2023-01-09T00:49:53.058Z,976.09
2023-01-09T00:50:03.283Z,976.10
2023-01-09T00:50:13.530Z,976.11
2023-01-09T00:50:23.765Z,976.11
2023-01-09T00:50:33.990Z,976.12
2023-01-09T00:50:44.239Z,976.13
2023-01-09T00:50:54.493Z,976.13
2023-01-09T00:51:04.737Z,976.13
2023-01-09T00:51:14.973Z,976.14
2023-01-09T00:51:25.238Z,976.14
2023-01-09T00:51:35.457Z,976.12
2023-01-09T00:51:45.708Z,976.12
2023-01-09T00:51:55.968Z,976.12
2023-01-09T00:52:06.206Z,976.13
2023-01-09T00:52:16.445Z,976.14
2023-01-09T00:52:26.665Z,976.13
2023-01-09T00:52:36.918Z,976.13
2023-01-09T00:52:47.164Z,976.13
2023-01-09T00:52:57.442Z,976.14
2023-01-09T00:53:07.672Z,976.14
2023-01-09T00:53:17.926Z,976.13
2023-01-09T00:53:28.153Z,976.15
2023-01-09T00:53:38.377Z,976.16
2023-01-09T00:53:48.639Z,976.17
2023-01-09T00:53:58.881Z,976.16
2023-01-09T00:54:09.116Z,976.17
2023-01-09T00:54:19.353Z,976.17
2023-01-09T00:54:29.615Z,976.16
2023-01-09T00:54:39.864Z,976.18
2023-01-09T00:54:50.064Z,976.19
2023-01-09T00:55:00.322Z,976.20
2023-01-09T00:55:10.555Z,976.20
2023-01-09T00:55:20.788Z,976.19
2023-01-09T00:55:31.053Z,976.19
2023-01-09T00:55:41.322Z,976.18
2023-01-09T00:55:51.565Z,976.19
2023-01-09T00:56:01.784Z,976.19
2023-01-09T00:56:12.059Z,976.22
2023-01-09T00:56:22.272Z,976.20
2023-01-09T00:56:32.521Z,976.21
2023-01-09T00:56:42.777Z,976.22
2023-01-09T00:56:53.043Z,976.23
2023-01-09T00:57:03.250Z,976.24
2023-01-09T00:57:13.498Z,976.24
2023-01-09T00:57:23.727Z,976.23
2023-01-09T00:57:33.965Z,976.22
2023-01-09T00:57:44.203Z,976.22
2023-01-09T00:57:54.438Z,976.23
2023-01-09T00:58:04.674Z,976.21
2023-01-09T00:58:14.922Z,976.22
2023-01-09T00:58:25.180Z,976.23
2023-01-09T00:58:35.430Z,976.22
2023-01-09T00:58:45.646Z,976.23
2023-01-09T00:58:55.887Z,976.24
2023-01-09T00:59:06.142Z,976.25
2023-01-09T00:59:16.411Z,976.25
2023-01-09T00:59:26.646Z,976.26
2023-01-09T00:59:36.926Z,976.28
2023-01-09T00:59:47.152Z,976.28
2023-01-09T00:59:57.392Z,976.29
2023-01-09T01:00:07.633Z,976.28
2023-01-09T01:00:17.864Z,976.28
2023-01-09T01:00:28.111Z,976.28
2023-01-09T01:00:38.377Z,976.28
2023-01-09T01:00:48.645Z,976.29
2023-01-09T01:00:59.030Z,976.29
2023-01-09T01:01:09.416Z,976.29
2023-01-09T01:01:19.583Z,976.30
2023-01-09T01:01:29.922Z,976.30
2023-01-09T01:01:40.267Z,976.29
2023-01-09T01:01:50.547Z,976.31
2023-01-09T01:02:01.083Z,976.32
2023-01-09T01:02:11.376Z,976.32
2023-01-09T01:02:21.692Z,976.31
2023-01-09T01:02:31.912Z,976.32
2023-01-09T01:02:42.008Z,976.31
2023-01-09T01:02:52.269Z,976.31
2023-01-09T01:03:02.561Z,976.32
2023-01-09T01:03:12.770Z,976.32
2023-01-09T01:03:23.022Z,976.32
2023-01-09T01:03:33.282Z,976.33
2023-01-09T01:03:43.510Z,976.32
2023-01-09T01:03:53.770Z,976.33
2023-01-09T01:04:04.008Z,976.34
2023-01-09T01:04:14.252Z,976.34
2023-01-09T01:04:24.515Z,976.34
2023-01-09T01:04:34.740Z,976.35
2023-01-09T01:04:45.007Z,976.34
2023-01-09T01:04:55.249Z,976.32
2023-01-09T01:05:05.485Z,976.32
2023-01-09T01:05:15.725Z,976.30
2023-01-09T01:05:25.970Z,976.32
2023-01-09T01:05:36.220Z,976.32
2023-01-09T01:05:46.466Z,976.32
2023-01-09T01:05:56.728Z,976.33
2023-01-09T01:06:06.935Z,976.32
2023-01-09T01:06:17.196Z,976.31
2023-01-09T01:06:27.431Z,976.30
2023-01-09T01:06:37.662Z,976.30
2023-01-09T01:06:47.894Z,976.32
2023-01-09T01:06:58.132Z,976.32
2023-01-09T01:07:08.370Z,976.30
2023-01-09T01:07:18.632Z,976.30
2023-01-09T01:07:28.856Z,976.31
2023-01-09T01:07:39.144Z,976.31
2023-01-09T01:07:49.362Z,976.31
2023-01-09T01:07:59.700Z,976.32
2023-01-09T01:08:09.892Z,976.32
2023-01-09T01:08:20.138Z,976.31
2023-01-09T01:08:30.366Z,976.31
2023-01-09T01:08:40.617Z,976.30
2023-01-09T01:08:50.854Z,976.28
2023-01-09T01:09:01.091Z,976.29
2023-01-09T01:09:11.345Z,976.29
2023-01-09T01:09:21.655Z,976.31
2023-01-09T01:09:31.892Z,976.28
2023-01-09T01:09:42.130Z,976.28
2023-01-09T01:09:52.388Z,976.29
2023-01-09T01:10:02.609Z,976.28
2023-01-09T01:10:12.844Z,976.28
2023-01-09T01:10:23.077Z,976.28
2023-01-09T01:10:33.317Z,976.28
2023-01-09T01:10:43.581Z,976.28
2023-01-09T01:10:53.811Z,976.29
2023-01-09T01:11:04.035Z,976.29
2023-01-09T01:11:14.274Z,976.27
2023-01-09T01:11:24.528Z,976.27
2023-01-09T01:11:34.750Z,976.27
2023-01-09T01:11:44.980Z,976.22
2023-01-09T01:11:55.230Z,976.25
2023-01-09T01:12:05.465Z,976.27
2023-01-09T01:12:15.702Z,976.27
2023-01-09T01:12:25.949Z,976.25
2023-01-09T01:12:36.192Z,976.26
2023-01-09T01:12:46.426Z,976.25
2023-01-09T01:12:56.683Z,976.23
2023-01-09T01:13:07.022Z,976.23
2023-01-09T01:13:17.300Z,976.23
2023-01-09T01:13:27.505Z,976.24
2023-01-09T01:13:37.751Z,976.24
2023-01-09T01:13:47.980Z,976.23
2023-01-09T01:13:58.232Z,976.22
2023-01-09T01:14:08.463Z,976.22
2023-01-09T01:14:18.768Z,976.23
2023-01-09T01:14:29.012Z,976.23
2023-01-09T01:14:39.235Z,976.24
2023-01-09T01:14:49.491Z,976.23
2023-01-09T01:14:59.716Z,976.21
2023-01-09T01:15:09.957Z,976.21
2023-01-09T01:15:20.226Z,976.22
2023-01-09T01:15:30.512Z,976.22
2023-01-09T01:15:40.753Z,976.24
2023-01-09T01:15:51.011Z,976.23
2023-01-09T01:16:01.258Z,976.24
2023-01-09T01:16:11.474Z,976.26
2023-01-09T01:16:21.771Z,976.24
2023-01-09T01:16:32.021Z,976.24
2023-01-09T01:16:42.265Z,976.25
2023-01-09T01:16:52.538Z,976.25
2023-01-09T01:17:02.783Z,976.26
2023-01-09T01:17:13.006Z,976.27
2023-01-09T01:17:23.261Z,976.28
2023-01-09T01:17:33.508Z,976.27
2023-01-09T01:17:43.754Z,976.27
2023-01-09T01:17:54.017Z,976.28
2023-01-09T01:18:04.245Z,976.28
2023-01-09T01:18:14.494Z,976.27
2023-01-09T01:18:24.728Z,976.29
2023-01-09T01:18:34.982Z,976.29
2023-01-09T01:18:45.230Z,976.28
2023-01-09T01:18:55.463Z,976.28
2023-01-09T01:19:05.754Z,976.28
2023-01-09T01:19:15.971Z,976.29
2023-01-09T01:19:26.222Z,976.29
2023-01-09T01:19:36.477Z,976.30
2023-01-09T01:19:46.698Z,976.31
2023-01-09T01:19:56.961Z,976.32
2023-01-09T01:20:07.230Z,976.32
2023-01-09T01:20:17.452Z,976.30
2023-01-09T01:20:27.692Z,976.30
2023-01-09T01:20:37.946Z,976.31
2023-01-09T01:20:48.191Z,976.30
2023-01-09T01:20:58.415Z,976.28
2023-01-09T01:21:08.666Z,976.28
2023-01-09T01:21:18.916Z,976.29
2023-01-09T01:21:29.146Z,976.28
2023-01-09T01:21:39.371Z,976.28
2023-01-09T01:21:49.618Z,976.28
2023-01-09T01:21:59.854Z,976.29
2023-01-09T01:22:10.088Z,976.29
2023-01-09T01:22:20.332Z,976.31
2023-01-09T01:22:30.576Z,976.32
2023-01-09T01:22:40.803Z,976.33
2023-01-09T01:22:51.060Z,976.33
2023-01-09T01:23:01.282Z,976.32
2023-01-09T01:23:11.527Z,976.35
2023-01-09T01:23:21.763Z,976.34
2023-01-09T01:23:31.993Z,976.34
2023-01-09T01:23:42.241Z,976.35
2023-01-09T01:23:52.500Z,976.37
2023-01-09T01:24:02.749Z,976.37
2023-01-09T01:24:12.970Z,976.37
2023-01-09T01:24:23.240Z,976.37
2023-01-09T01:24:33.443Z,976.38
2023-01-09T01:24:43.682Z,976.38
2023-01-09T01:24:53.925Z,976.38
2023-01-09T01:25:04.150Z,976.37
2023-01-09T01:25:14.393Z,976.38
2023-01-09T01:25:24.623Z,976.38
2023-01-09T01:25:34.860Z,976.35
2023-01-09T01:25:45.117Z,976.36
2023-01-09T01:25:55.373Z,976.36
2023-01-09T01:26:05.604Z,976.37
2023-01-09T01:26:15.843Z,976.37
2023-01-09T01:26:26.075Z,976.36
2023-01-09T01:26:36.325Z,976.36
2023-01-09T01:26:46.541Z,976.36
2023-01-09T01:26:56.792Z,976.36
2023-01-09T01:27:07.027Z,976.36
2023-01-09T01:27:17.282Z,976.36
2023-01-09T01:27:27.511Z,976.37
2023-01-09T01:27:37.752Z,976.36
2023-01-09T01:27:47.998Z,976.37
2023-01-09T01:27:58.249Z,976.35
2023-01-09T01:28:08.473Z,976.35
2023-01-09T01:28:18.701Z,976.38
2023-01-09T01:28:28.958Z,976.38
2023-01-09T01:28:39.209Z,976.38
2023-01-09T01:28:49.459Z,976.39
2023-01-09T01:28:59.721Z,976.38
2023-01-09T01:29:09.941Z,976.40
2023-01-09T01:29:20.209Z,976.42
2023-01-09T01:29:30.429Z,976.41
2023-01-09T01:29:40.692Z,976.41
2023-01-09T01:29:50.934Z,976.41
2023-01-09T01:30:01.154Z,976.41
2023-01-09T01:30:11.388Z,976.43
2023-01-09T01:30:21.642Z,976.44
2023-01-09T01:30:31.887Z,976.44
2023-01-09T01:30:42.184Z,976.44
2023-01-09T01:30:52.417Z,976.45
2023-01-09T01:31:02.681Z,976.44
2023-01-09T01:31:12.938Z,976.44
2023-01-09T01:31:23.182Z,976.44
2023-01-09T01:31:33.433Z,976.45
2023-01-09T01:31:43.667Z,976.45
2023-01-09T01:31:53.922Z,976.43
2023-01-09T01:32:04.157Z,976.42
2023-01-09T01:32:14.395Z,976.43
2023-01-09T01:32:24.633Z,976.43
2023-01-09T01:32:34.909Z,976.42
2023-01-09T01:32:45.137Z,976.42
2023-01-09T01:32:55.368Z,976.41
2023-01-09T01:33:05.637Z,976.41
2023-01-09T01:33:15.865Z,976.42
2023-01-09T01:33:26.123Z,976.41
2023-01-09T01:33:36.363Z,976.41
2023-01-09T01:33:46.611Z,976.40
2023-01-09T01:33:56.855Z,976.40
2023-01-09T01:34:07.099Z,976.40
2023-01-09T01:34:17.339Z,976.41
2023-01-09T01:34:27.566Z,976.40
2023-01-09T01:34:37.794Z,976.40
2023-01-09T01:34:48.043Z,976.40
2023-01-09T01:34:58.309Z,976.39
2023-01-09T01:35:08.599Z,976.40
2023-01-09T01:35:18.813Z,976.40
2023-01-09T01:35:29.061Z,976.40
2023-01-09T01:35:39.297Z,976.40
2023-01-09T01:35:49.541Z,976.40
2023-01-09T01:35:59.805Z,976.41
2023-01-09T01:36:10.051Z,976.41
2023-01-09T01:36:20.293Z,976.41
2023-01-09T01:36:30.549Z,976.41
2023-01-09T01:36:40.816Z,976.41
2023-01-09T01:36:51.057Z,976.43
2023-01-09T01:37:01.303Z,976.41
2023-01-09T01:37:11.541Z,976.41
2023-01-09T01:37:21.817Z,976.41
2023-01-09T01:37:32.016Z,976.42
2023-01-09T01:37:42.271Z,976.42
2023-01-09T01:37:52.493Z,976.43
2023-01-09T01:38:02.741Z,976.43
2023-01-09T01:38:12.980Z,976.42
2023-01-09T01:38:23.222Z,976.43
2023-01-09T01:38:33.464Z,976.45
2023-01-09T01:38:43.719Z,976.45
2023-01-09T01:38:53.966Z,976.45
2023-01-09T01:39:04.212Z,976.46
2023-01-09T01:39:14.434Z,976.46
2023-01-09T01:39:24.684Z,976.46
2023-01-09T01:39:34.915Z,976.47
2023-01-09T01:39:45.177Z,976.48
2023-01-09T01:39:55.441Z,976.47
2023-01-09T01:40:05.659Z,976.46
2023-01-09T01:40:15.914Z,976.48
2023-01-09T01:40:26.137Z,976.47
2023-01-09T01:40:36.369Z,976.47
2023-01-09T01:40:46.621Z,976.47
2023-01-09T01:40:56.868Z,976.46
2023-01-09T01:41:07.165Z,976.47
2023-01-09T01:41:17.362Z,976.47
2023-01-09T01:41:27.609Z,976.47
2023-01-09T01:41:37.869Z,976.47
2023-01-09T01:41:48.115Z,976.46
2023-01-09T01:41:58.342Z,976.46
2023-01-09T01:42:08.577Z,976.47
2023-01-09T01:42:18.811Z,976.46
2023-01-09T01:42:29.061Z,976.46
2023-01-09T01:42:39.288Z,976.46
2023-01-09T01:42:49.544Z,976.46
2023-01-09T01:42:59.788Z,976.46
2023-01-09T01:43:10.021Z,976.46
2023-01-09T01:43:20.260Z,976.46
2023-01-09T01:43:30.520Z,976.46
2023-01-09T01:43:40.745Z,976.45
2023-01-09T01:43:51.039Z,976.45
2023-01-09T01:44:01.272Z,976.44
2023-01-09T01:44:11.486Z,976.43
2023-01-09T01:44:21.745Z,976.43
2023-01-09T01:44:32.031Z,976.43
2023-01-09T01:44:42.251Z,976.43
2023-01-09T01:44:52.517Z,976.44
2023-01-09T01:45:02.764Z,976.44
2023-01-09T01:45:12.977Z,976.44
2023-01-09T01:45:23.208Z,976.45
2023-01-09T01:45:33.465Z,976.46
2023-01-09T01:45:43.723Z,976.46
2023-01-09T01:45:54.046Z,976.47
2023-01-09T01:46:04.326Z,976.47
2023-01-09T01:46:14.640Z,976.48
2023-01-09T01:46:24.858Z,976.49
2023-01-09T01:46:35.114Z,976.49
2023-01-09T01:46:45.357Z,976.50
2023-01-09T01:46:55.606Z,976.50
2023-01-09T01:47:05.840Z,976.51
2023-01-09T01:47:16.083Z,976.52
2023-01-09T01:47:26.315Z,976.53
2023-01-09T01:47:36.543Z,976.54
2023-01-09T01:47:46.776Z,976.54
2023-01-09T01:47:57.043Z,976.55
2023-01-09T01:48:07.259Z,976.55
2023-01-09T01:48:17.498Z,976.55
2023-01-09T01:48:27.768Z,976.56
2023-01-09T01:48:37.972Z,976.57
2023-01-09T01:48:48.236Z,976.57
2023-01-09T01:48:58.465Z,976.58
2023-01-09T01:49:08.692Z,976.57
2023-01-09T01:49:18.941Z,976.59
2023-01-09T01:49:29.198Z,976.59
2023-01-09T01:49:39.427Z,976.59
2023-01-09T01:49:49.700Z,976.60
2023-01-09T01:49:59.922Z,976.61
2023-01-09T01:50:10.153Z,976.62
2023-01-09T01:50:20.388Z,976.63
2023-01-09T01:50:30.612Z,976.64
2023-01-09T01:50:40.857Z,976.64
2023-01-09T01:50:51.131Z,976.64
2023-01-09T01:51:01.374Z,976.65
2023-01-09T01:51:11.605Z,976.66
2023-01-09T01:51:21.854Z,976.66
2023-01-09T01:51:32.078Z,976.67
2023-01-09T01:51:42.334Z,976.67
2023-01-09T01:51:52.560Z,976.67
2023-01-09T01:52:02.807Z,976.67
2023-01-09T01:52:13.036Z,976.67
2023-01-09T01:52:23.289Z,976.67
2023-01-09T01:52:33.522Z,976.67
2023-01-09T01:52:43.767Z,976.67
2023-01-09T01:52:54.024Z,976.67
2023-01-09T01:53:04.256Z,976.67
2023-01-09T01:53:14.488Z,976.67
2023-01-09T01:53:24.733Z,976.67
2023-01-09T01:53:34.973Z,976.67
2023-01-09T01:53:45.221Z,976.66
2023-01-09T01:53:55.452Z,976.67
2023-01-09T01:54:05.704Z,976.66
2023-01-09T01:54:15.949Z,976.66
2023-01-09T01:54:26.179Z,976.65
2023-01-09T01:54:36.462Z,976.65
2023-01-09T01:54:46.682Z,976.65
2023-01-09T01:54:56.918Z,976.64
2023-01-09T01:55:07.174Z,976.65
2023-01-09T01:55:17.410Z,976.65
2023-01-09T01:55:27.637Z,976.65
2023-01-09T01:55:37.873Z,976.65
2023-01-09T01:55:48.110Z,976.65
2023-01-09T01:55:58.361Z,976.66
2023-01-09T01:56:08.602Z,976.66
2023-01-09T01:56:18.862Z,976.66
2023-01-09T01:56:29.083Z,976.67
2023-01-09T01:56:39.343Z,976.67
2023-01-09T01:56:49.564Z,976.66
2023-01-09T01:56:59.822Z,976.67
2023-01-09T01:57:10.073Z,976.67
2023-01-09T01:57:20.299Z,976.67
2023-01-09T01:57:30.541Z,976.67
2023-01-09T01:57:40.789Z,976.67
2023-01-09T01:57:51.031Z,976.67
2023-01-09T01:58:01.316Z,976.67
2023-01-09T01:58:11.554Z,976.67
2023-01-09T01:58:21.804Z,976.67
2023-01-09T01:58:32.029Z,976.66
2023-01-09T01:58:42.272Z,976.67
2023-01-09T01:58:52.521Z,976.66
2023-01-09T01:59:02.761Z,976.66
2023-01-09T01:59:12.984Z,976.66
2023-01-09T01:59:23.244Z,976.66
2023-01-09T01:59:33.500Z,976.66
2023-01-09T01:59:43.725Z,976.66
2023-01-09T01:59:53.964Z,976.66
2023-01-09T02:00:04.202Z,976.66
2023-01-09T02:00:14.472Z,976.66
2023-01-09T02:00:24.700Z,976.66
2023-01-09T02:00:34.948Z,976.66
2023-01-09T02:00:45.198Z,976.66
2023-01-09T02:00:55.563Z,976.66
2023-01-09T02:01:05.985Z,976.66
2023-01-09T02:01:16.339Z,976.66
2023-01-09T02:01:26.772Z,976.67
2023-01-09T02:01:36.990Z,976.67
2023-01-09T02:01:47.188Z,976.67
2023-01-09T02:01:57.613Z,976.67
2023-01-09T02:02:07.996Z,976.67
2023-01-09T02:02:18.280Z,976.68
2023-01-09T02:02:28.505Z,976.68
2023-01-09T02:02:38.733Z,976.68
2023-01-09T02:02:48.989Z,976.69
2023-01-09T02:02:59.245Z,976.69
2023-01-09T02:03:09.482Z,976.69
2023-01-09T02:03:19.755Z,976.70
2023-01-09T02:03:29.977Z,976.70
2023-01-09T02:03:40.254Z,976.71
2023-01-09T02:03:50.475Z,976.71
2023-01-09T02:04:00.690Z,976.72
2023-01-09T02:04:10.953Z,976.72
2023-01-09T02:04:21.209Z,976.72
2023-01-09T02:04:31.427Z,976.73
2023-01-09T02:04:41.685Z,976.74
2023-01-09T02:04:51.923Z,976.74
2023-01-09T02:05:02.172Z,976.75
2023-01-09T02:05:12.400Z,976.74
2023-01-09T02:05:22.671Z,976.75
2023-01-09T02:05:32.885Z,976.75
2023-01-09T02:05:43.145Z,976.75
2023-01-09T02:05:53.399Z,976.75
2023-01-09T02:06:03.634Z,976.75
2023-01-09T02:06:13.899Z,976.74
2023-01-09T02:06:24.144Z,976.73
2023-01-09T02:06:34.382Z,976.72
2023-01-09T02:06:44.612Z,976.73
2023-01-09T02:06:54.858Z,976.73
2023-01-09T02:07:05.096Z,976.73
2023-01-09T02:07:15.324Z,976.74
2023-01-09T02:07:25.564Z,976.74
2023-01-09T02:07:35.793Z,976.74
2023-01-09T02:07:46.039Z,976.74